createdAt,value
2022-12-31T00:01:11.776Z,10.20
2022-12-31T00:03:41.468Z,10.05
2022-12-31T00:06:15.375Z,10.19
2022-12-31T00:08:45.967Z,10.11
2022-12-31T00:11:15.953Z,10.29
2022-12-31T00:13:47.085Z,10.34
2022-12-31T00:16:17.506Z,10.30
2022-12-31T00:18:47.806Z,10.32
2022-12-31T00:21:16.929Z,10.42
2022-12-31T00:23:48.187Z,10.45
2022-12-31T00:26:18.459Z,10.45
2022-12-31T00:28:47.624Z,10.25
2022-12-31T00:31:17.996Z,10.43
2022-12-31T00:33:47.585Z,10.59
2022-12-31T00:36:18.573Z,10.65
2022-12-31T00:38:49.791Z,10.67
2022-12-31T00:41:19.845Z,10.73
2022-12-31T00:43:48.966Z,10.82
2022-12-31T00:46:19.104Z,10.89
2022-12-31T00:48:47.700Z,10.91
2022-12-31T00:51:19.624Z,10.92
2022-12-31T00:53:49.952Z,11.08
2022-12-31T00:56:21.680Z,11.17
2022-12-31T00:58:50.973Z,11.21
2022-12-31T01:01:21.760Z,11.29
2022-12-31T01:03:51.643Z,11.41
2022-12-31T01:06:20.601Z,11.49
2022-12-31T01:08:51.410Z,11.54
2022-12-31T01:11:22.940Z,11.50
2022-12-31T01:13:54.082Z,11.64
2022-12-31T01:16:25.391Z,11.69
2022-12-31T01:18:54.885Z,11.77
2022-12-31T01:21:23.668Z,11.80
2022-12-31T01:23:53.486Z,11.83
2022-12-31T01:26:23.061Z,11.75
2022-12-31T01:28:51.983Z,11.76
2022-12-31T01:31:24.676Z,11.79
2022-12-31T01:33:54.140Z,11.82
2022-12-31T01:36:26.308Z,11.89
2022-12-31T01:38:59.369Z,11.85
2022-12-31T01:41:31.191Z,11.91
2022-12-31T01:44:02.324Z,11.93
2022-12-31T01:46:37.043Z,11.96
2022-12-31T01:49:22.611Z,11.99
2022-12-31T01:51:54.662Z,11.96
2022-12-31T01:54:28.687Z,12.02
2022-12-31T01:56:58.020Z,12.05
2022-12-31T01:59:30.884Z,12.06
2022-12-31T02:02:00.791Z,12.05
2022-12-31T02:04:30.279Z,12.05
2022-12-31T02:07:02.655Z,11.99
2022-12-31T02:09:34.041Z,12.17
2022-12-31T02:12:02.471Z,12.22
2022-12-31T02:14:35.284Z,12.22
2022-12-31T02:17:08.708Z,12.27
2022-12-31T02:19:57.144Z,11.91
2022-12-31T02:22:40.883Z,12.34
2022-12-31T02:25:37.412Z,12.37
2022-12-31T02:28:21.730Z,12.04
2022-12-31T02:30:57.103Z,12.32
2022-12-31T02:33:33.754Z,12.41
2022-12-31T02:36:06.527Z,12.38
2022-12-31T02:38:40.582Z,12.49
2022-12-31T02:41:33.664Z,12.34
2022-12-31T02:44:02.687Z,12.39
2022-12-31T02:46:39.212Z,12.59
2022-12-31T02:49:14.019Z,12.63
2022-12-31T02:51:47.637Z,12.62
2022-12-31T02:54:24.990Z,12.66
2022-12-31T02:57:04.779Z,12.68
2022-12-31T02:59:56.978Z,12.70
2022-12-31T03:02:29.724Z,12.72
2022-12-31T03:05:02.592Z,12.70
2022-12-31T03:07:34.067Z,12.72
2022-12-31T03:10:03.078Z,12.77
2022-12-31T03:12:48.203Z,12.82
2022-12-31T03:15:23.124Z,12.76
2022-12-31T03:17:55.879Z,12.86
2022-12-31T03:20:44.499Z,12.81
2022-12-31T03:23:16.582Z,12.90
2022-12-31T03:25:44.322Z,12.79
2022-12-31T03:28:16.499Z,12.93
2022-12-31T03:30:47.677Z,12.83
2022-12-31T03:33:17.755Z,12.98
2022-12-31T03:35:48.792Z,12.97
2022-12-31T03:38:17.808Z,12.95
2022-12-31T03:40:49.213Z,12.73
2022-12-31T03:43:20.180Z,13.02
2022-12-31T03:45:51.904Z,12.94
2022-12-31T03:48:22.963Z,13.04
2022-12-31T03:50:52.443Z,12.98
2022-12-31T03:53:21.447Z,13.08
2022-12-31T03:55:52.182Z,12.99
2022-12-31T03:58:21.109Z,13.10
2022-12-31T04:00:49.734Z,13.11
2022-12-31T04:03:19.403Z,13.11
2022-12-31T04:05:55.525Z,12.98
2022-12-31T04:08:24.634Z,12.78
2022-12-31T04:10:53.495Z,13.17
2022-12-31T04:13:21.877Z,13.07
2022-12-31T04:15:51.579Z,13.13
2022-12-31T04:18:19.993Z,13.13
2022-12-31T04:20:49.369Z,12.83
2022-12-31T04:23:19.212Z,13.14
2022-12-31T04:25:48.130Z,13.12
2022-12-31T04:28:17.109Z,13.13
2022-12-31T04:30:45.518Z,13.12
2022-12-31T04:33:14.931Z,13.13
2022-12-31T04:35:43.251Z,13.13
2022-12-31T04:38:12.277Z,13.13
2022-12-31T04:41:02.076Z,13.16
2022-12-31T04:43:31.300Z,13.12
2022-12-31T04:45:59.671Z,13.20
2022-12-31T04:48:28.896Z,13.21
2022-12-31T04:50:57.699Z,13.22
2022-12-31T04:53:26.433Z,13.20
2022-12-31T04:55:57.229Z,13.27
2022-12-31T04:58:25.645Z,13.28
2022-12-31T05:00:55.505Z,13.27
2022-12-31T05:03:26.286Z,13.26
2022-12-31T05:05:55.049Z,13.34
2022-12-31T05:08:23.886Z,13.32
2022-12-31T05:10:52.308Z,13.29
2022-12-31T05:13:23.986Z,13.30
2022-12-31T05:15:55.377Z,13.13
2022-12-31T05:18:24.733Z,13.24
2022-12-31T05:20:53.253Z,13.20
2022-12-31T05:23:22.052Z,13.22
2022-12-31T05:25:51.039Z,13.31
2022-12-31T05:28:20.727Z,13.43
2022-12-31T05:30:52.282Z,13.49
2022-12-31T05:33:22.591Z,13.39
2022-12-31T05:35:52.075Z,13.56
2022-12-31T05:38:20.451Z,13.60
2022-12-31T05:40:49.398Z,13.57
2022-12-31T05:43:18.272Z,13.65
2022-12-31T05:45:46.993Z,13.65
2022-12-31T05:48:17.593Z,13.71
2022-12-31T05:50:45.967Z,13.59
2022-12-31T05:53:15.470Z,13.70
2022-12-31T05:55:43.813Z,13.74
2022-12-31T05:58:12.673Z,13.84
2022-12-31T06:00:42.643Z,13.77
2022-12-31T06:03:11.889Z,13.89
2022-12-31T06:05:42.963Z,13.80
2022-12-31T06:08:13.091Z,13.92
2022-12-31T06:10:41.822Z,13.93
2022-12-31T06:13:11.378Z,13.84
2022-12-31T06:15:41.322Z,13.99
2022-12-31T06:18:10.230Z,13.90
2022-12-31T06:20:39.445Z,14.05
2022-12-31T06:23:09.893Z,14.10
2022-12-31T06:25:38.729Z,13.96
2022-12-31T06:28:08.022Z,14.19
2022-12-31T06:30:36.578Z,14.19
2022-12-31T06:33:05.284Z,14.13
2022-12-31T06:35:34.401Z,14.20
2022-12-31T06:38:03.125Z,14.17
2022-12-31T06:40:33.818Z,14.22
2022-12-31T06:43:02.437Z,14.13
2022-12-31T06:45:31.090Z,14.30
2022-12-31T06:48:00.389Z,14.16
2022-12-31T06:50:28.759Z,14.31
2022-12-31T06:52:57.981Z,14.35
2022-12-31T06:55:27.614Z,14.42
2022-12-31T06:57:58.722Z,14.43
2022-12-31T07:00:27.733Z,14.42
2022-12-31T07:03:16.783Z,14.32
2022-12-31T07:05:48.210Z,14.44
2022-12-31T07:08:29.667Z,14.49
2022-12-31T07:11:06.404Z,14.47
2022-12-31T07:14:13.018Z,14.47
2022-12-31T07:16:51.903Z,14.37
2022-12-31T07:19:30.533Z,14.44
2022-12-31T07:22:00.696Z,14.42
2022-12-31T07:24:29.830Z,14.49
2022-12-31T07:27:15.708Z,14.42
2022-12-31T07:30:05.988Z,14.50
2022-12-31T07:32:59.751Z,14.42
2022-12-31T07:35:41.348Z,14.50
2022-12-31T07:38:20.787Z,14.40
2022-12-31T07:41:07.286Z,14.46
2022-12-31T07:43:52.871Z,14.49
2022-12-31T07:46:35.128Z,14.49
2022-12-31T07:49:07.810Z,14.46
2022-12-31T07:51:41.365Z,14.46
2022-12-31T07:54:14.372Z,14.49
2022-12-31T07:56:48.871Z,14.49
2022-12-31T07:59:35.756Z,14.55
2022-12-31T08:02:45.845Z,14.59
2022-12-31T08:05:29.955Z,14.55
2022-12-31T08:08:24.783Z,14.53
2022-12-31T08:11:03.828Z,14.60
2022-12-31T08:13:51.211Z,14.19
2022-12-31T08:16:27.904Z,14.60
2022-12-31T08:19:01.077Z,14.64
2022-12-31T08:21:44.361Z,14.61
2022-12-31T08:24:24.035Z,14.60
2022-12-31T08:26:59.420Z,14.60
2022-12-31T08:29:37.406Z,14.60
2022-12-31T08:32:14.270Z,14.60
2022-12-31T08:34:54.139Z,14.65
2022-12-31T08:37:33.290Z,14.60
2022-12-31T08:40:14.892Z,14.70
2022-12-31T08:42:57.736Z,14.70
2022-12-31T08:45:35.905Z,14.59
2022-12-31T08:48:13.922Z,14.64
2022-12-31T08:50:47.659Z,14.71
2022-12-31T08:53:17.681Z,14.66
2022-12-31T08:55:52.431Z,15.08
2022-12-31T08:58:42.692Z,15.36
2022-12-31T09:01:15.595Z,15.69
2022-12-31T09:07:38.736Z,16.08
2022-12-31T09:10:35.106Z,16.32
2022-12-31T09:13:24.499Z,16.15
2022-12-31T09:16:22.042Z,15.85
2022-12-31T09:22:02.308Z,15.45
2022-12-31T09:29:09.800Z,15.67
2022-12-31T09:35:52.827Z,16.03
2022-12-31T09:38:31.337Z,15.77
2022-12-31T10:12:04.632Z,16.48
2022-12-31T10:18:19.850Z,16.19
2022-12-31T10:21:13.790Z,16.20
2022-12-31T10:23:59.810Z,15.94
2022-12-31T10:26:49.850Z,16.19
2022-12-31T10:29:33.179Z,16.16
2022-12-31T10:32:17.715Z,15.92
2022-12-31T10:34:56.381Z,15.72
2022-12-31T10:37:30.994Z,15.90
2022-12-31T11:28:31.987Z,15.67
2022-12-31T11:31:19.355Z,15.58
2022-12-31T11:34:02.634Z,15.61
2022-12-31T11:36:43.078Z,15.64
2022-12-31T11:39:31.496Z,15.62
2022-12-31T11:42:06.166Z,15.74
2022-12-31T11:44:47.596Z,15.76
2022-12-31T11:47:41.211Z,15.74
2022-12-31T11:50:34.078Z,15.69
2022-12-31T11:53:34.203Z,15.75
2022-12-31T11:56:16.448Z,15.74
2022-12-31T11:58:49.630Z,15.86
2022-12-31T12:01:26.122Z,15.90
2022-12-31T12:03:55.324Z,15.95
2022-12-31T12:06:28.965Z,15.99
2022-12-31T12:13:36.494Z,16.46
2022-12-31T12:16:09.191Z,16.73
2022-12-31T12:18:45.192Z,16.63
2022-12-31T12:21:17.440Z,17.22
2022-12-31T12:23:57.126Z,16.97
2022-12-31T12:26:29.252Z,17.08
2022-12-31T12:29:01.747Z,17.40
2022-12-31T12:31:30.585Z,17.29
2022-12-31T12:34:01.164Z,17.34
2022-12-31T12:36:29.955Z,17.40
2022-12-31T12:39:04.683Z,17.43
2022-12-31T12:41:33.387Z,17.57
2022-12-31T12:44:09.781Z,17.67
2022-12-31T12:46:48.187Z,17.78
2022-12-31T12:49:24.643Z,17.84
2022-12-31T12:52:10.632Z,17.79
2022-12-31T12:54:55.309Z,17.95
2022-12-31T12:57:34.840Z,18.00
2022-12-31T13:00:10.752Z,17.85
2022-12-31T13:03:14.633Z,17.65
2022-12-31T13:05:57.506Z,17.57
2022-12-31T13:08:42.332Z,17.51
2022-12-31T13:11:27.764Z,17.38
2022-12-31T13:14:05.108Z,17.35
2022-12-31T13:16:41.493Z,17.26
2022-12-31T13:19:20.326Z,17.24
2022-12-31T13:21:58.971Z,17.15
2022-12-31T13:24:43.612Z,17.14
2022-12-31T13:27:19.815Z,17.07
2022-12-31T13:29:50.509Z,17.12
2022-12-31T13:32:24.740Z,17.13
2022-12-31T13:34:58.994Z,17.30
2022-12-31T13:37:35.392Z,17.46
2022-12-31T13:40:14.325Z,17.54
2022-12-31T13:42:49.555Z,17.55
2022-12-31T13:45:26.461Z,17.42
2022-12-31T13:48:00.100Z,17.55
2022-12-31T13:50:35.853Z,17.65
2022-12-31T13:53:15.189Z,17.57
2022-12-31T13:55:55.070Z,17.51
2022-12-31T13:58:34.221Z,17.45
2022-12-31T14:01:13.381Z,17.54
2022-12-31T14:03:50.482Z,17.45
2022-12-31T14:06:30.549Z,17.47
2022-12-31T14:09:00.984Z,17.40
2022-12-31T14:11:48.228Z,17.47
2022-12-31T14:14:31.868Z,17.38
2022-12-31T14:17:07.943Z,17.15
2022-12-31T14:19:49.219Z,17.01
2022-12-31T14:22:24.442Z,16.87
2022-12-31T14:24:57.125Z,16.75
2022-12-31T14:27:31.493Z,16.65
2022-12-31T14:30:03.060Z,16.55
2022-12-31T14:32:52.340Z,16.35
2022-12-31T14:35:52.037Z,16.41
2022-12-31T14:38:31.933Z,16.31
2022-12-31T14:41:13.695Z,16.14
2022-12-31T14:43:52.793Z,16.06
2022-12-31T14:46:30.887Z,16.00
2022-12-31T14:49:12.791Z,15.91
2022-12-31T14:51:41.524Z,15.89
2022-12-31T14:54:29.111Z,15.79
2022-12-31T14:57:15.717Z,15.74
2022-12-31T14:59:56.303Z,15.58
2022-12-31T15:02:39.798Z,15.50
2022-12-31T15:05:20.439Z,15.51
2022-12-31T15:08:04.938Z,15.48
2022-12-31T15:10:43.876Z,15.47
2022-12-31T15:13:29.427Z,15.42
2022-12-31T15:16:15.062Z,15.42
2022-12-31T15:19:17.565Z,15.25
2022-12-31T15:21:57.421Z,15.17
2022-12-31T15:24:30.793Z,15.11
2022-12-31T15:27:06.906Z,14.99
2022-12-31T15:29:46.019Z,14.90
2022-12-31T15:43:18.498Z,14.72
2022-12-31T15:45:49.535Z,14.72
2022-12-31T15:48:28.524Z,14.74
2022-12-31T15:51:00.831Z,14.67
2022-12-31T15:53:33.964Z,14.61
2022-12-31T15:56:03.883Z,14.49
2022-12-31T16:02:00.339Z,14.26
2022-12-31T16:04:33.467Z,14.15
2022-12-31T16:19:35.262Z,13.88
